sensor_id;sensor_type;location;lat;lon;timestamp;P1;durP1;ratioP1;P2;durP2;ratioP2
62092;SDS011;59819;52.976;6.846;2022-08-19T00:01:40;3.60;;;3.30;;
62092;SDS011;59819;52.976;6.846;2022-08-19T00:04:07;3.85;;;3.55;;
62092;SDS011;59819;52.976;6.846;2022-08-19T00:06:34;3.85;;;3.50;;
62092;SDS011;59819;52.976;6.846;2022-08-19T00:09:01;4.68;;;4.00;;
62092;SDS011;59819;52.976;6.846;2022-08-19T00:11:28;3.92;;;3.30;;
62092;SDS011;59819;52.976;6.846;2022-08-19T00:13:54;3.40;;;3.10;;
62092;SDS011;59819;52.976;6.846;2022-08-19T00:16:21;3.92;;;3.28;;
62092;SDS011;59819;52.976;6.846;2022-08-19T00:18:47;3.63;;;3.17;;
62092;SDS011;59819;52.976;6.846;2022-08-19T00:21:14;3.90;;;3.50;;
62092;SDS011;59819;52.976;6.846;2022-08-19T00:23:40;4.20;;;3.80;;
62092;SDS011;59819;52.976;6.846;2022-08-19T00:26:08;4.07;;;3.78;;
62092;SDS011;59819;52.976;6.846;2022-08-19T00:28:34;4.90;;;3.40;;
62092;SDS011;59819;52.976;6.846;2022-08-19T00:31:01;7.47;;;5.70;;
62092;SDS011;59819;52.976;6.846;2022-08-19T00:33:28;5.30;;;4.80;;
62092;SDS011;59819;52.976;6.846;2022-08-19T00:35:57;4.25;;;3.80;;
62092;SDS011;59819;52.976;6.846;2022-08-19T00:38:23;9.95;;;3.55;;
62092;SDS011;59819;52.976;6.846;2022-08-19T00:40:49;7.25;;;2.58;;
62092;SDS011;59819;52.976;6.846;2022-08-19T00:43:18;6.00;;;3.47;;
62092;SDS011;59819;52.976;6.846;2022-08-19T00:45:44;3.80;;;3.50;;
62092;SDS011;59819;52.976;6.846;2022-08-19T00:48:10;4.70;;;4.30;;
62092;SDS011;59819;52.976;6.846;2022-08-19T00:50:38;3.17;;;2.88;;
62092;SDS011;59819;52.976;6.846;2022-08-19T00:53:05;9.20;;;5.90;;
62092;SDS011;59819;52.976;6.846;2022-08-19T00:55:31;12.23;;;4.05;;
62092;SDS011;59819;52.976;6.846;2022-08-19T00:58:00;3.15;;;2.25;;
62092;SDS011;59819;52.976;6.846;2022-08-19T01:00:27;3.10;;;2.80;;
62092;SDS011;59819;52.976;6.846;2022-08-19T01:02:53;2.60;;;2.40;;
62092;SDS011;59819;52.976;6.846;2022-08-19T01:05:23;15.85;;;3.40;;
62092;SDS011;59819;52.976;6.846;2022-08-19T01:07:52;2.60;;;2.40;;
62092;SDS011;59819;52.976;6.846;2022-08-19T01:10:20;3.40;;;2.85;;
62092;SDS011;59819;52.976;6.846;2022-08-19T01:12:48;8.00;;;3.75;;
62092;SDS011;59819;52.976;6.846;2022-08-19T01:15:15;10.38;;;5.28;;
62092;SDS011;59819;52.976;6.846;2022-08-19T01:17:42;6.60;;;3.75;;
62092;SDS011;59819;52.976;6.846;2022-08-19T01:20:11;6.40;;;2.80;;
62092;SDS011;59819;52.976;6.846;2022-08-19T01:22:41;22.65;;;4.95;;
62092;SDS011;59819;52.976;6.846;2022-08-19T01:25:08;18.55;;;3.72;;
62092;SDS011;59819;52.976;6.846;2022-08-19T01:27:38;34.72;;;4.38;;
62092;SDS011;59819;52.976;6.846;2022-08-19T01:30:05;47.40;;;5.63;;
62092;SDS011;59819;52.976;6.846;2022-08-19T01:32:32;36.80;;;4.28;;
62092;SDS011;59819;52.976;6.846;2022-08-19T01:34:58;2.60;;;2.40;;
62092;SDS011;59819;52.976;6.846;2022-08-19T01:37:26;3.20;;;2.70;;
62092;SDS011;59819;52.976;6.846;2022-08-19T01:39:52;3.40;;;3.10;;
62092;SDS011;59819;52.976;6.846;2022-08-19T01:42:18;3.30;;;2.97;;
62092;SDS011;59819;52.976;6.846;2022-08-19T01:44:44;4.60;;;3.25;;
62092;SDS011;59819;52.976;6.846;2022-08-19T01:47:11;3.85;;;3.45;;
62092;SDS011;59819;52.976;6.846;2022-08-19T01:49:37;5.40;;;4.60;;
62092;SDS011;59819;52.976;6.846;2022-08-19T01:52:03;50.03;;;7.10;;
62092;SDS011;59819;52.976;6.846;2022-08-19T01:54:30;146.75;;;12.70;;
62092;SDS011;59819;52.976;6.846;2022-08-19T01:57:01;19.45;;;7.53;;
62092;SDS011;59819;52.976;6.846;2022-08-19T01:59:29;5.38;;;4.10;;
62092;SDS011;59819;52.976;6.846;2022-08-19T02:01:55;5.10;;;4.60;;
62092;SDS011;59819;52.976;6.846;2022-08-19T02:04:21;5.85;;;4.50;;
62092;SDS011;59819;52.976;6.846;2022-08-19T02:06:48;9.85;;;5.13;;
62092;SDS011;59819;52.976;6.846;2022-08-19T02:09:14;9.60;;;5.63;;
62092;SDS011;59819;52.976;6.846;2022-08-19T02:11:41;11.45;;;6.07;;
62092;SDS011;59819;52.976;6.846;2022-08-19T02:14:07;32.58;;;6.13;;
62092;SDS011;59819;52.976;6.846;2022-08-19T02:16:34;9.23;;;5.15;;
62092;SDS011;59819;52.976;6.846;2022-08-19T02:19:00;5.90;;;5.30;;
62092;SDS011;59819;52.976;6.846;2022-08-19T02:21:27;5.32;;;4.82;;
62092;SDS011;59819;52.976;6.846;2022-08-19T02:23:54;4.45;;;3.47;;
62092;SDS011;59819;52.976;6.846;2022-08-19T02:26:20;5.55;;;5.05;;
62092;SDS011;59819;52.976;6.846;2022-08-19T02:28:46;93.85;;;9.15;;
62092;SDS011;59819;52.976;6.846;2022-08-19T02:31:15;55.45;;;7.55;;
62092;SDS011;59819;52.976;6.846;2022-08-19T02:33:42;86.38;;;8.20;;
62092;SDS011;59819;52.976;6.846;2022-08-19T02:36:10;55.38;;;7.63;;
62092;SDS011;59819;52.976;6.846;2022-08-19T02:38:36;40.47;;;7.00;;
62092;SDS011;59819;52.976;6.846;2022-08-19T02:41:12;34.85;;;7.13;;
62092;SDS011;59819;52.976;6.846;2022-08-19T02:43:39;40.05;;;7.28;;
62092;SDS011;59819;52.976;6.846;2022-08-19T02:48:43;9.88;;;6.00;;
62092;SDS011;59819;52.976;6.846;2022-08-19T02:51:09;28.48;;;5.82;;
62092;SDS011;59819;52.976;6.846;2022-08-19T02:53:40;20.33;;;5.88;;
62092;SDS011;59819;52.976;6.846;2022-08-19T02:56:07;7.43;;;5.13;;
62092;SDS011;59819;52.976;6.846;2022-08-19T02:58:33;24.00;;;5.75;;
62092;SDS011;59819;52.976;6.846;2022-08-19T03:00:59;23.80;;;5.80;;
62092;SDS011;59819;52.976;6.846;2022-08-19T03:03:26;20.42;;;4.90;;
62092;SDS011;59819;52.976;6.846;2022-08-19T03:06:02;32.15;;;6.43;;
62092;SDS011;59819;52.976;6.846;2022-08-19T03:08:28;55.70;;;7.57;;
62092;SDS011;59819;52.976;6.846;2022-08-19T03:10:54;35.75;;;6.65;;
62092;SDS011;59819;52.976;6.846;2022-08-19T03:13:21;102.18;;;9.38;;
62092;SDS011;59819;52.976;6.846;2022-08-19T03:15:48;43.67;;;7.50;;
62092;SDS011;59819;52.976;6.846;2022-08-19T03:18:14;39.75;;;7.45;;
62092;SDS011;59819;52.976;6.846;2022-08-19T03:20:45;5.60;;;5.10;;
62092;SDS011;59819;52.976;6.846;2022-08-19T03:23:12;49.13;;;7.53;;
62092;SDS011;59819;52.976;6.846;2022-08-19T03:25:39;51.50;;;8.25;;
62092;SDS011;59819;52.976;6.846;2022-08-19T03:28:06;25.58;;;6.25;;
62092;SDS011;59819;52.976;6.846;2022-08-19T03:30:33;34.92;;;8.52;;
62092;SDS011;59819;52.976;6.846;2022-08-19T03:32:59;22.83;;;6.68;;
62092;SDS011;59819;52.976;6.846;2022-08-19T03:35:25;54.05;;;9.43;;
62092;SDS011;59819;52.976;6.846;2022-08-19T03:37:51;35.90;;;8.27;;
62092;SDS011;59819;52.976;6.846;2022-08-19T03:40:17;105.32;;;10.10;;
62092;SDS011;59819;52.976;6.846;2022-08-19T03:42:44;53.28;;;8.32;;
62092;SDS011;59819;52.976;6.846;2022-08-19T03:45:11;91.22;;;10.15;;
62092;SDS011;59819;52.976;6.846;2022-08-19T03:47:37;108.07;;;12.73;;
62092;SDS011;59819;52.976;6.846;2022-08-19T03:50:03;55.90;;;10.02;;
62092;SDS011;59819;52.976;6.846;2022-08-19T03:52:30;141.45;;;13.88;;
62092;SDS011;59819;52.976;6.846;2022-08-19T03:54:56;48.03;;;9.10;;
62092;SDS011;59819;52.976;6.846;2022-08-19T03:57:22;42.90;;;9.38;;
62092;SDS011;59819;52.976;6.846;2022-08-19T03:59:48;80.82;;;11.90;;
62092;SDS011;59819;52.976;6.846;2022-08-19T04:02:14;66.20;;;10.55;;
62092;SDS011;59819;52.976;6.846;2022-08-19T04:04:40;79.28;;;10.18;;
62092;SDS011;59819;52.976;6.846;2022-08-19T04:07:08;72.47;;;10.30;;
62092;SDS011;59819;52.976;6.846;2022-08-19T04:09:34;76.32;;;11.73;;
62092;SDS011;59819;52.976;6.846;2022-08-19T04:12:02;76.05;;;10.68;;
62092;SDS011;59819;52.976;6.846;2022-08-19T04:14:30;109.40;;;13.32;;
62092;SDS011;59819;52.976;6.846;2022-08-19T04:16:57;22.42;;;10.00;;
62092;SDS011;59819;52.976;6.846;2022-08-19T04:19:23;17.92;;;8.77;;
62092;SDS011;59819;52.976;6.846;2022-08-19T04:21:50;10.68;;;8.70;;
62092;SDS011;59819;52.976;6.846;2022-08-19T04:24:16;11.48;;;7.75;;
62092;SDS011;59819;52.976;6.846;2022-08-19T04:26:43;8.02;;;6.50;;
62092;SDS011;59819;52.976;6.846;2022-08-19T04:29:13;17.58;;;10.15;;
62092;SDS011;59819;52.976;6.846;2022-08-19T04:31:40;10.18;;;8.40;;
62092;SDS011;59819;52.976;6.846;2022-08-19T04:34:08;10.70;;;8.52;;
62092;SDS011;59819;52.976;6.846;2022-08-19T04:36:36;9.93;;;8.25;;
62092;SDS011;59819;52.976;6.846;2022-08-19T04:39:07;8.98;;;7.97;;
62092;SDS011;59819;52.976;6.846;2022-08-19T04:41:33;10.20;;;8.67;;
62092;SDS011;59819;52.976;6.846;2022-08-19T04:44:18;87.75;;;11.00;;
62092;SDS011;59819;52.976;6.846;2022-08-19T04:46:44;118.38;;;11.88;;
62092;SDS011;59819;52.976;6.846;2022-08-19T04:49:11;85.38;;;10.23;;
62092;SDS011;59819;52.976;6.846;2022-08-19T04:51:39;86.28;;;9.68;;
62092;SDS011;59819;52.976;6.846;2022-08-19T04:54:05;31.13;;;8.38;;
62092;SDS011;59819;52.976;6.846;2022-08-19T04:56:31;27.15;;;8.20;;
62092;SDS011;59819;52.976;6.846;2022-08-19T04:58:57;26.98;;;8.30;;
62092;SDS011;59819;52.976;6.846;2022-08-19T05:01:28;36.22;;;8.98;;
62092;SDS011;59819;52.976;6.846;2022-08-19T05:03:55;76.82;;;11.77;;
62092;SDS011;59819;52.976;6.846;2022-08-19T05:06:22;72.28;;;12.60;;
62092;SDS011;59819;52.976;6.846;2022-08-19T05:08:48;23.50;;;10.13;;
62092;SDS011;59819;52.976;6.846;2022-08-19T05:11:15;11.27;;;8.57;;
62092;SDS011;59819;52.976;6.846;2022-08-19T05:13:43;12.90;;;8.43;;
62092;SDS011;59819;52.976;6.846;2022-08-19T05:16:09;14.20;;;9.55;;
62092;SDS011;59819;52.976;6.846;2022-08-19T05:18:36;14.77;;;10.25;;
62092;SDS011;59819;52.976;6.846;2022-08-19T05:21:20;11.65;;;9.57;;
62092;SDS011;59819;52.976;6.846;2022-08-19T05:24:05;24.33;;;12.00;;
62092;SDS011;59819;52.976;6.846;2022-08-19T05:26:35;16.02;;;11.05;;
62092;SDS011;59819;52.976;6.846;2022-08-19T05:29:02;17.35;;;12.02;;
62092;SDS011;59819;52.976;6.846;2022-08-19T05:31:28;21.50;;;13.50;;
62092;SDS011;59819;52.976;6.846;2022-08-19T05:33:54;14.27;;;11.60;;
62092;SDS011;59819;52.976;6.846;2022-08-19T05:36:23;20.75;;;14.07;;
62092;SDS011;59819;52.976;6.846;2022-08-19T05:38:49;19.55;;;14.20;;
62092;SDS011;59819;52.976;6.846;2022-08-19T05:41:15;17.58;;;12.70;;
62092;SDS011;59819;52.976;6.846;2022-08-19T05:43:42;14.25;;;11.98;;
62092;SDS011;59819;52.976;6.846;2022-08-19T05:46:08;15.38;;;12.40;;
62092;SDS011;59819;52.976;6.846;2022-08-19T05:48:41;20.40;;;15.05;;
62092;SDS011;59819;52.976;6.846;2022-08-19T05:51:07;21.83;;;14.60;;
62092;SDS011;59819;52.976;6.846;2022-08-19T05:53:33;22.45;;;15.73;;
62092;SDS011;59819;52.976;6.846;2022-08-19T05:56:06;18.90;;;13.80;;
62092;SDS011;59819;52.976;6.846;2022-08-19T05:58:32;21.88;;;16.25;;
62092;SDS011;59819;52.976;6.846;2022-08-19T06:00:58;19.75;;;14.88;;
62092;SDS011;59819;52.976;6.846;2022-08-19T06:03:29;24.17;;;16.17;;
62092;SDS011;59819;52.976;6.846;2022-08-19T06:05:55;28.85;;;20.00;;
62092;SDS011;59819;52.976;6.846;2022-08-19T06:08:24;28.58;;;19.08;;
62092;SDS011;59819;52.976;6.846;2022-08-19T06:10:50;32.85;;;22.88;;
62092;SDS011;59819;52.976;6.846;2022-08-19T06:13:16;35.95;;;22.95;;
62092;SDS011;59819;52.976;6.846;2022-08-19T06:15:44;35.72;;;23.05;;
62092;SDS011;59819;52.976;6.846;2022-08-19T06:18:12;36.97;;;24.20;;
62092;SDS011;59819;52.976;6.846;2022-08-19T06:20:38;41.25;;;24.58;;
62092;SDS011;59819;52.976;6.846;2022-08-19T06:23:04;29.65;;;21.65;;
62092;SDS011;59819;52.976;6.846;2022-08-19T06:25:30;34.78;;;23.05;;
62092;SDS011;59819;52.976;6.846;2022-08-19T06:27:56;30.45;;;21.45;;
62092;SDS011;59819;52.976;6.846;2022-08-19T06:30:22;26.02;;;20.25;;
62092;SDS011;59819;52.976;6.846;2022-08-19T06:32:48;27.67;;;19.48;;
62092;SDS011;59819;52.976;6.846;2022-08-19T06:35:14;27.45;;;19.45;;
62092;SDS011;59819;52.976;6.846;2022-08-19T06:37:40;29.10;;;20.17;;
62092;SDS011;59819;52.976;6.846;2022-08-19T06:40:08;29.67;;;21.00;;
62092;SDS011;59819;52.976;6.846;2022-08-19T06:42:35;25.30;;;19.77;;
62092;SDS011;59819;52.976;6.846;2022-08-19T06:45:03;27.27;;;19.88;;
62092;SDS011;59819;52.976;6.846;2022-08-19T06:47:29;27.23;;;18.42;;
62092;SDS011;59819;52.976;6.846;2022-08-19T06:49:57;24.45;;;18.17;;
62092;SDS011;59819;52.976;6.846;2022-08-19T06:52:32;28.90;;;19.77;;
62092;SDS011;59819;52.976;6.846;2022-08-19T06:54:59;21.70;;;17.02;;
62092;SDS011;59819;52.976;6.846;2022-08-19T06:57:25;24.85;;;18.40;;
62092;SDS011;59819;52.976;6.846;2022-08-19T06:59:51;21.80;;;16.80;;
62092;SDS011;59819;52.976;6.846;2022-08-19T07:02:18;23.60;;;17.80;;
62092;SDS011;59819;52.976;6.846;2022-08-19T07:04:45;21.20;;;17.45;;
62092;SDS011;59819;52.976;6.846;2022-08-19T07:07:13;22.92;;;17.13;;
62092;SDS011;59819;52.976;6.846;2022-08-19T07:09:41;24.77;;;17.92;;
62092;SDS011;59819;52.976;6.846;2022-08-19T07:12:08;21.77;;;16.48;;
62092;SDS011;59819;52.976;6.846;2022-08-19T07:14:35;20.70;;;16.83;;
62092;SDS011;59819;52.976;6.846;2022-08-19T07:17:08;21.67;;;15.60;;
62092;SDS011;59819;52.976;6.846;2022-08-19T07:19:35;17.83;;;15.70;;
62092;SDS011;59819;52.976;6.846;2022-08-19T07:22:02;19.98;;;16.17;;
62092;SDS011;59819;52.976;6.846;2022-08-19T07:24:29;22.20;;;16.80;;
62092;SDS011;59819;52.976;6.846;2022-08-19T07:26:56;19.65;;;15.48;;
62092;SDS011;59819;52.976;6.846;2022-08-19T07:29:25;20.45;;;15.02;;
62092;SDS011;59819;52.976;6.846;2022-08-19T07:31:52;19.88;;;15.30;;
62092;SDS011;59819;52.976;6.846;2022-08-19T07:34:21;20.15;;;15.50;;
62092;SDS011;59819;52.976;6.846;2022-08-19T07:36:48;19.05;;;15.82;;
62092;SDS011;59819;52.976;6.846;2022-08-19T07:39:16;18.02;;;14.95;;
62092;SDS011;59819;52.976;6.846;2022-08-19T07:41:43;16.35;;;14.52;;
62092;SDS011;59819;52.976;6.846;2022-08-19T07:44:09;18.15;;;14.55;;
62092;SDS011;59819;52.976;6.846;2022-08-19T07:46:38;20.55;;;15.20;;
62092;SDS011;59819;52.976;6.846;2022-08-19T07:49:05;19.10;;;15.40;;
62092;SDS011;59819;52.976;6.846;2022-08-19T07:51:31;17.08;;;14.70;;
62092;SDS011;59819;52.976;6.846;2022-08-19T07:53:58;16.60;;;14.05;;
62092;SDS011;59819;52.976;6.846;2022-08-19T07:56:25;18.25;;;14.30;;
62092;SDS011;59819;52.976;6.846;2022-08-19T07:58:51;16.83;;;14.13;;
62092;SDS011;59819;52.976;6.846;2022-08-19T08:01:19;17.42;;;13.55;;
62092;SDS011;59819;52.976;6.846;2022-08-19T08:03:45;14.60;;;12.73;;
62092;SDS011;59819;52.976;6.846;2022-08-19T08:06:30;14.93;;;12.55;;
62092;SDS011;59819;52.976;6.846;2022-08-19T08:09:16;14.90;;;13.32;;
62092;SDS011;59819;52.976;6.846;2022-08-19T08:11:52;15.60;;;12.43;;
62092;SDS011;59819;52.976;6.846;2022-08-19T08:14:23;18.98;;;13.77;;
62092;SDS011;59819;52.976;6.846;2022-08-19T08:16:49;14.95;;;13.10;;
62092;SDS011;59819;52.976;6.846;2022-08-19T08:19:17;16.48;;;13.52;;
62092;SDS011;59819;52.976;6.846;2022-08-19T08:21:43;15.20;;;13.25;;
62092;SDS011;59819;52.976;6.846;2022-08-19T08:24:09;15.55;;;12.63;;
62092;SDS011;59819;52.976;6.846;2022-08-19T08:26:36;15.50;;;13.23;;
62092;SDS011;59819;52.976;6.846;2022-08-19T08:29:02;15.85;;;13.50;;
62092;SDS011;59819;52.976;6.846;2022-08-19T08:31:28;14.50;;;12.43;;
62092;SDS011;59819;52.976;6.846;2022-08-19T08:33:54;12.55;;;11.25;;
62092;SDS011;59819;52.976;6.846;2022-08-19T08:36:20;13.38;;;11.98;;
62092;SDS011;59819;52.976;6.846;2022-08-19T08:38:47;14.57;;;12.45;;
62092;SDS011;59819;52.976;6.846;2022-08-19T08:43:44;13.80;;;12.48;;
62092;SDS011;59819;52.976;6.846;2022-08-19T08:46:15;15.02;;;11.75;;
62092;SDS011;59819;52.976;6.846;2022-08-19T08:48:52;12.18;;;10.88;;
62092;SDS011;59819;52.976;6.846;2022-08-19T08:51:23;10.50;;;9.48;;
62092;SDS011;59819;52.976;6.846;2022-08-19T08:53:51;10.77;;;9.40;;
62092;SDS011;59819;52.976;6.846;2022-08-19T08:56:18;10.32;;;9.32;;
62092;SDS011;59819;52.976;6.846;2022-08-19T08:58:46;7.93;;;7.05;;
62092;SDS011;59819;52.976;6.846;2022-08-19T09:01:13;8.65;;;7.82;;
62092;SDS011;59819;52.976;6.846;2022-08-19T09:03:41;9.20;;;8.30;;
62092;SDS011;59819;52.976;6.846;2022-08-19T09:06:11;8.93;;;8.02;;
62092;SDS011;59819;52.976;6.846;2022-08-19T09:08:42;8.93;;;7.35;;
62092;SDS011;59819;52.976;6.846;2022-08-19T09:11:11;7.25;;;6.03;;
62092;SDS011;59819;52.976;6.846;2022-08-19T09:13:44;6.63;;;5.88;;
62092;SDS011;59819;52.976;6.846;2022-08-19T09:16:18;5.75;;;5.25;;
62092;SDS011;59819;52.976;6.846;2022-08-19T09:18:50;7.05;;;5.75;;
62092;SDS011;59819;52.976;6.846;2022-08-19T09:21:19;6.22;;;5.40;;
62092;SDS011;59819;52.976;6.846;2022-08-19T09:23:46;5.43;;;4.93;;
62092;SDS011;59819;52.976;6.846;2022-08-19T09:26:13;5.05;;;4.40;;
62092;SDS011;59819;52.976;6.846;2022-08-19T09:28:40;6.57;;;4.40;;
62092;SDS011;59819;52.976;6.846;2022-08-19T09:31:14;5.22;;;4.72;;
62092;SDS011;59819;52.976;6.846;2022-08-19T09:33:40;6.15;;;4.80;;
62092;SDS011;59819;52.976;6.846;2022-08-19T09:36:09;5.63;;;4.95;;
62092;SDS011;59819;52.976;6.846;2022-08-19T09:38:36;5.70;;;5.00;;
62092;SDS011;59819;52.976;6.846;2022-08-19T09:41:05;5.13;;;4.63;;
62092;SDS011;59819;52.976;6.846;2022-08-19T09:43:32;5.45;;;5.03;;
62092;SDS011;59819;52.976;6.846;2022-08-19T09:46:01;5.90;;;4.85;;
62092;SDS011;59819;52.976;6.846;2022-08-19T09:48:27;7.07;;;5.10;;
62092;SDS011;59819;52.976;6.846;2022-08-19T09:50:53;6.35;;;5.07;;
62092;SDS011;59819;52.976;6.846;2022-08-19T09:53:19;7.50;;;5.68;;
62092;SDS011;59819;52.976;6.846;2022-08-19T09:55:47;8.02;;;6.90;;
62092;SDS011;59819;52.976;6.846;2022-08-19T09:58:14;6.95;;;6.28;;
62092;SDS011;59819;52.976;6.846;2022-08-19T10:00:40;8.23;;;7.40;;
62092;SDS011;59819;52.976;6.846;2022-08-19T10:03:06;8.73;;;7.93;;
62092;SDS011;59819;52.976;6.846;2022-08-19T10:05:32;8.05;;;7.25;;
62092;SDS011;59819;52.976;6.846;2022-08-19T10:10:39;7.57;;;6.60;;
62092;SDS011;59819;52.976;6.846;2022-08-19T10:13:08;8.45;;;7.50;;
62092;SDS011;59819;52.976;6.846;2022-08-19T10:15:34;8.50;;;7.70;;
62092;SDS011;59819;52.976;6.846;2022-08-19T10:18:00;9.18;;;8.25;;
62092;SDS011;59819;52.976;6.846;2022-08-19T10:20:26;8.07;;;7.28;;
62092;SDS011;59819;52.976;6.846;2022-08-19T10:22:54;8.90;;;8.02;;
62092;SDS011;59819;52.976;6.846;2022-08-19T10:25:20;8.88;;;7.97;;
62092;SDS011;59819;52.976;6.846;2022-08-19T10:27:46;10.77;;;8.07;;
62092;SDS011;59819;52.976;6.846;2022-08-19T10:30:12;8.32;;;7.53;;
62092;SDS011;59819;52.976;6.846;2022-08-19T10:32:38;8.63;;;7.82;;
62092;SDS011;59819;52.976;6.846;2022-08-19T10:35:05;7.35;;;6.65;;
62092;SDS011;59819;52.976;6.846;2022-08-19T10:37:33;9.18;;;7.50;;
62092;SDS011;59819;52.976;6.846;2022-08-19T10:39:59;7.43;;;6.72;;
62092;SDS011;59819;52.976;6.846;2022-08-19T10:42:26;8.70;;;7.80;;
62092;SDS011;59819;52.976;6.846;2022-08-19T10:44:52;7.60;;;6.90;;
62092;SDS011;59819;52.976;6.846;2022-08-19T10:47:18;9.32;;;8.43;;
62092;SDS011;59819;52.976;6.846;2022-08-19T10:49:45;8.73;;;7.75;;
62092;SDS011;59819;52.976;6.846;2022-08-19T10:52:32;10.80;;;7.65;;
62092;SDS011;59819;52.976;6.846;2022-08-19T10:55:02;7.25;;;6.55;;
62092;SDS011;59819;52.976;6.846;2022-08-19T10:57:48;10.32;;;8.68;;
62092;SDS011;59819;52.976;6.846;2022-08-19T11:00:14;9.65;;;8.65;;
62092;SDS011;59819;52.976;6.846;2022-08-19T11:02:40;8.07;;;6.97;;
62092;SDS011;59819;52.976;6.846;2022-08-19T11:05:07;8.20;;;7.00;;
62092;SDS011;59819;52.976;6.846;2022-08-19T11:07:36;6.72;;;6.03;;
62092;SDS011;59819;52.976;6.846;2022-08-19T11:10:03;7.53;;;6.82;;
62092;SDS011;59819;52.976;6.846;2022-08-19T11:12:29;7.53;;;6.78;;
62092;SDS011;59819;52.976;6.846;2022-08-19T11:14:55;8.57;;;7.68;;
62092;SDS011;59819;52.976;6.846;2022-08-19T11:17:21;9.00;;;7.38;;
62092;SDS011;59819;52.976;6.846;2022-08-19T11:19:48;8.68;;;7.78;;
62092;SDS011;59819;52.976;6.846;2022-08-19T11:22:15;9.68;;;8.60;;
62092;SDS011;59819;52.976;6.846;2022-08-19T11:24:42;9.10;;;8.23;;
62092;SDS011;59819;52.976;6.846;2022-08-19T11:27:08;10.32;;;9.02;;
62092;SDS011;59819;52.976;6.846;2022-08-19T11:29:36;9.18;;;7.93;;
62092;SDS011;59819;52.976;6.846;2022-08-19T11:32:04;7.70;;;7.00;;
62092;SDS011;59819;52.976;6.846;2022-08-19T11:34:30;8.18;;;7.38;;
62092;SDS011;59819;52.976;6.846;2022-08-19T11:36:57;8.50;;;7.70;;
62092;SDS011;59819;52.976;6.846;2022-08-19T11:39:24;9.55;;;8.07;;
62092;SDS011;59819;52.976;6.846;2022-08-19T11:41:51;8.82;;;8.02;;
62092;SDS011;59819;52.976;6.846;2022-08-19T11:44:17;8.82;;;7.65;;
62092;SDS011;59819;52.976;6.846;2022-08-19T11:46:44;9.30;;;8.40;;
62092;SDS011;59819;52.976;6.846;2022-08-19T11:49:11;9.90;;;9.00;;
62092;SDS011;59819;52.976;6.846;2022-08-19T11:51:37;10.13;;;9.23;;
62092;SDS011;59819;52.976;6.846;2022-08-19T11:54:04;9.30;;;8.50;;
62092;SDS011;59819;52.976;6.846;2022-08-19T11:56:30;8.65;;;7.95;;
62092;SDS011;59819;52.976;6.846;2022-08-19T11:58:56;8.63;;;7.93;;
62092;SDS011;59819;52.976;6.846;2022-08-19T12:01:23;9.57;;;8.57;;
62092;SDS011;59819;52.976;6.846;2022-08-19T12:03:50;8.98;;;8.18;;
62092;SDS011;59819;52.976;6.846;2022-08-19T12:06:17;9.27;;;8.48;;
62092;SDS011;59819;52.976;6.846;2022-08-19T12:08:44;9.45;;;8.55;;
62092;SDS011;59819;52.976;6.846;2022-08-19T12:11:11;9.18;;;8.38;;
62092;SDS011;59819;52.976;6.846;2022-08-19T12:13:38;9.50;;;8.70;;
62092;SDS011;59819;52.976;6.846;2022-08-19T12:16:09;9.43;;;8.45;;
62092;SDS011;59819;52.976;6.846;2022-08-19T12:18:37;8.27;;;7.57;;
62092;SDS011;59819;52.976;6.846;2022-08-19T12:21:03;9.77;;;8.98;;
62092;SDS011;59819;52.976;6.846;2022-08-19T12:23:29;9.32;;;8.32;;
62092;SDS011;59819;52.976;6.846;2022-08-19T12:25:55;8.20;;;7.45;;
62092;SDS011;59819;52.976;6.846;2022-08-19T12:28:23;8.20;;;7.40;;
62092;SDS011;59819;52.976;6.846;2022-08-19T12:30:49;8.88;;;7.97;;
62092;SDS011;59819;52.976;6.846;2022-08-19T12:33:16;8.15;;;7.45;;
62092;SDS011;59819;52.976;6.846;2022-08-19T12:35:43;8.30;;;7.60;;
62092;SDS011;59819;52.976;6.846;2022-08-19T12:38:10;8.27;;;7.57;;
62092;SDS011;59819;52.976;6.846;2022-08-19T12:40:37;8.65;;;7.72;;
62092;SDS011;59819;52.976;6.846;2022-08-19T12:43:04;8.50;;;7.70;;
62092;SDS011;59819;52.976;6.846;2022-08-19T12:45:31;8.77;;;7.95;;
62092;SDS011;59819;52.976;6.846;2022-08-19T12:47:56;8.77;;;7.97;;
62092;SDS011;59819;52.976;6.846;2022-08-19T12:50:23;8.57;;;7.75;;
62092;SDS011;59819;52.976;6.846;2022-08-19T12:52:49;9.13;;;8.23;;
62092;SDS011;59819;52.976;6.846;2022-08-19T12:55:15;9.40;;;8.60;;
62092;SDS011;59819;52.976;6.846;2022-08-19T12:57:43;9.10;;;8.30;;
62092;SDS011;59819;52.976;6.846;2022-08-19T13:00:14;9.68;;;8.88;;
62092;SDS011;59819;52.976;6.846;2022-08-19T13:02:41;10.23;;;9.23;;
62092;SDS011;59819;52.976;6.846;2022-08-19T13:05:10;10.77;;;9.75;;
62092;SDS011;59819;52.976;6.846;2022-08-19T13:07:37;11.20;;;9.68;;
62092;SDS011;59819;52.976;6.846;2022-08-19T13:10:04;10.40;;;9.30;;
62092;SDS011;59819;52.976;6.846;2022-08-19T13:12:30;9.02;;;8.23;;
62092;SDS011;59819;52.976;6.846;2022-08-19T13:14:56;7.50;;;6.78;;
62092;SDS011;59819;52.976;6.846;2022-08-19T13:17:22;7.22;;;6.63;;
62092;SDS011;59819;52.976;6.846;2022-08-19T13:19:48;3.90;;;3.60;;
62092;SDS011;59819;52.976;6.846;2022-08-19T13:22:15;4.72;;;4.32;;
62092;SDS011;59819;52.976;6.846;2022-08-19T13:24:41;4.70;;;4.30;;
62092;SDS011;59819;52.976;6.846;2022-08-19T13:27:07;5.10;;;4.60;;
62092;SDS011;59819;52.976;6.846;2022-08-19T13:29:33;5.65;;;5.10;;
62092;SDS011;59819;52.976;6.846;2022-08-19T13:32:18;6.30;;;5.70;;
62092;SDS011;59819;52.976;6.846;2022-08-19T13:35:03;7.07;;;6.43;;
62092;SDS011;59819;52.976;6.846;2022-08-19T13:37:29;7.45;;;6.03;;
62092;SDS011;59819;52.976;6.846;2022-08-19T13:40:08;11.32;;;6.72;;
62092;SDS011;59819;52.976;6.846;2022-08-19T13:42:40;5.40;;;4.90;;
62092;SDS011;59819;52.976;6.846;2022-08-19T13:45:06;4.57;;;4.18;;
62092;SDS011;59819;52.976;6.846;2022-08-19T13:47:33;4.45;;;3.50;;
62092;SDS011;59819;52.976;6.846;2022-08-19T13:50:03;3.55;;;3.25;;
62092;SDS011;59819;52.976;6.846;2022-08-19T13:52:29;3.72;;;3.42;;
62092;SDS011;59819;52.976;6.846;2022-08-19T13:54:55;4.75;;;3.83;;
62092;SDS011;59819;52.976;6.846;2022-08-19T13:57:22;4.95;;;4.50;;
62092;SDS011;59819;52.976;6.846;2022-08-19T13:59:48;4.63;;;4.22;;
62092;SDS011;59819;52.976;6.846;2022-08-19T14:02:14;5.43;;;4.93;;
62092;SDS011;59819;52.976;6.846;2022-08-19T14:04:40;5.78;;;5.28;;
62092;SDS011;59819;52.976;6.846;2022-08-19T14:07:06;6.13;;;5.53;;
62092;SDS011;59819;52.976;6.846;2022-08-19T14:09:32;5.78;;;5.28;;
62092;SDS011;59819;52.976;6.846;2022-08-19T14:11:58;5.85;;;5.32;;
62092;SDS011;59819;52.976;6.846;2022-08-19T14:14:24;6.93;;;5.95;;
62092;SDS011;59819;52.976;6.846;2022-08-19T14:16:50;6.03;;;5.53;;
62092;SDS011;59819;52.976;6.846;2022-08-19T14:19:16;6.72;;;6.05;;
62092;SDS011;59819;52.976;6.846;2022-08-19T14:21:44;7.13;;;6.40;;
62092;SDS011;59819;52.976;6.846;2022-08-19T14:24:10;7.80;;;7.10;;
62092;SDS011;59819;52.976;6.846;2022-08-19T14:26:36;17.08;;;15.27;;
62092;SDS011;59819;52.976;6.846;2022-08-19T14:29:02;20.23;;;16.35;;
62092;SDS011;59819;52.976;6.846;2022-08-19T14:31:28;21.05;;;16.98;;
62092;SDS011;59819;52.976;6.846;2022-08-19T14:33:54;19.30;;;17.20;;
62092;SDS011;59819;52.976;6.846;2022-08-19T14:36:20;20.60;;;18.40;;
62092;SDS011;59819;52.976;6.846;2022-08-19T14:38:46;21.17;;;18.98;;
62092;SDS011;59819;52.976;6.846;2022-08-19T14:41:17;26.90;;;19.67;;
62092;SDS011;59819;52.976;6.846;2022-08-19T14:46:11;21.45;;;18.60;;
62092;SDS011;59819;52.976;6.846;2022-08-19T14:48:38;20.42;;;17.90;;